Time;durP1;ratioP1;P1;durP2;ratioP2;P2;SDS_P1;SDS_P2;PMS_P1;PMS_P2;Temp;Humidity;BMP_temperature;BMP_pressure;BME280_temperature;BME280_humidity;BME280_pressure;Samples;Min_cycle;Max_cycle;Signal;HPM_P1;HPM_P2
2021/12/21 00:00:30;;;;;;;11.20;4.80;;;;;;;;;;5039654;28;20052;-48
2021/12/21 00:02:56;;;;;;;10.02;5.40;;;;;;;;;;5039630;28;20041;-48
2021/12/21 00:05:27;;;;;;;9.15;4.63;;;;;;;;;;5035406;28;20049;-48
2021/12/21 00:07:54;;;;;;;11.02;4.63;;;;;;;;;;5034483;28;20034;-48
2021/12/21 00:10:23;;;;;;;12.95;5.15;;;;;;;;;;5033343;28;20442;-49
2021/12/21 00:13:04;;;;;;;8.98;4.97;;;;;;;;;;5037882;28;20492;-49
2021/12/21 00:15:43;;;;;;;15.20;5.43;;;;;;;;;;5033900;28;20037;-49
2021/12/21 00:21:13;;;;;;;14.05;6.25;;;;;;;;;;5036586;28;20106;-50
2021/12/21 00:23:43;;;;;;;16.15;6.28;;;;;;;;;;5032789;28;20052;-49
2021/12/21 00:26:12;;;;;;;15.23;7.03;;;;;;;;;;5031341;28;20064;-48
2021/12/21 00:29:12;;;;;;;19.52;8.73;;;;;;;;;;5036350;28;20175;-48
2021/12/21 00:31:34;;;;;;;17.73;7.97;;;;;;;;;;5036090;28;20136;-52
2021/12/21 00:34:01;;;;;;;22.85;8.75;;;;;;;;;;5036078;28;20017;-53
2021/12/21 00:36:28;;;;;;;21.38;9.55;;;;;;;;;;5034683;28;20028;-51
2021/12/21 00:38:56;;;;;;;16.38;7.50;;;;;;;;;;5038631;28;20056;-52
2021/12/21 00:41:21;;;;;;;13.38;5.82;;;;;;;;;;5032332;28;20030;-53
2021/12/21 00:43:47;;;;;;;11.07;5.40;;;;;;;;;;5038829;28;20037;-50
2021/12/21 00:46:14;;;;;;;19.73;6.03;;;;;;;;;;5031600;28;20039;-50
2021/12/21 00:48:48;;;;;;;15.98;5.22;;;;;;;;;;5034907;28;20033;-49
2021/12/21 00:51:15;;;;;;;9.90;5.25;;;;;;;;;;5027309;28;20404;-51
2021/12/21 00:53:41;;;;;;;11.60;5.10;;;;;;;;;;5032650;28;20608;-49
2021/12/21 00:56:07;;;;;;;12.25;5.78;;;;;;;;;;5033820;28;20057;-49
2021/12/21 00:58:32;;;;;;;8.55;4.32;;;;;;;;;;5034297;28;20059;-50
2021/12/21 01:01:03;;;;;;;9.88;4.95;;;;;;;;;;5014871;28;20471;-49
2021/12/21 01:03:28;;;;;;;11.15;5.18;;;;;;;;;;5015094;28;20072;-51
2021/12/21 01:06:14;;;;;;;13.38;5.35;;;;;;;;;;5010861;28;20046;-48
2021/12/21 01:09:09;;;;;;;9.07;4.60;;;;;;;;;;5014353;28;20377;-49
2021/12/21 01:11:33;;;;;;;11.23;4.82;;;;;;;;;;5011107;28;20241;-48
2021/12/21 01:16:41;;;;;;;18.27;5.07;;;;;;;;;;5017509;28;20045;-50
2021/12/21 01:19:20;;;;;;;11.50;5.10;;;;;;;;;;5013134;28;20042;-51
2021/12/21 01:24:54;;;;;;;12.52;5.70;;;;;;;;;;5013299;28;20026;-48
2021/12/21 01:30:02;;;;;;;9.88;5.15;;;;;;;;;;5015811;28;20073;-48
2021/12/21 01:35:11;;;;;;;12.93;5.82;;;;;;;;;;5014417;28;20030;-48
2021/12/21 01:50:53;;;;;;;14.32;5.68;;;;;;;;;;5016232;28;20044;-50
2021/12/21 01:53:18;;;;;;;15.55;5.60;;;;;;;;;;5012549;28;21580;-48
2021/12/21 01:55:44;;;;;;;14.02;5.78;;;;;;;;;;5013960;28;20034;-49
2021/12/21 01:58:10;;;;;;;12.30;6.05;;;;;;;;;;5013490;28;20022;-48
2021/12/21 02:00:37;;;;;;;12.50;5.85;;;;;;;;;;5010191;28;20494;-50
2021/12/21 02:03:03;;;;;;;18.13;6.93;;;;;;;;;;5010029;28;20049;-48
2021/12/21 02:05:29;;;;;;;11.00;5.40;;;;;;;;;;5011337;28;20068;-48
2021/12/21 02:07:55;;;;;;;18.25;6.20;;;;;;;;;;5015104;28;20465;-49
2021/12/21 02:10:20;;;;;;;10.48;5.57;;;;;;;;;;5015586;28;20132;-49
2021/12/21 02:12:46;;;;;;;10.85;5.07;;;;;;;;;;5012083;28;20033;-49
2021/12/21 02:15:12;;;;;;;13.80;5.97;;;;;;;;;;5016174;28;20041;-49
2021/12/21 02:23:02;;;;;;;14.02;5.80;;;;;;;;;;5015042;28;20052;-50
2021/12/21 02:30:44;;;;;;;15.50;6.45;;;;;;;;;;5013877;28;20108;-51
2021/12/21 02:33:12;;;;;;;13.35;6.57;;;;;;;;;;5013151;28;20025;-48
2021/12/21 02:35:37;;;;;;;13.13;6.40;;;;;;;;;;5011774;28;20171;-48
2021/12/21 02:38:04;;;;;;;19.05;7.72;;;;;;;;;;5015104;28;20561;-53
2021/12/21 02:40:29;;;;;;;17.55;7.47;;;;;;;;;;5010907;28;20033;-53
2021/12/21 02:42:55;;;;;;;15.52;7.35;;;;;;;;;;5014401;28;20056;-54
2021/12/21 02:45:20;;;;;;;17.98;7.65;;;;;;;;;;5017534;28;20072;-52
2021/12/21 02:47:46;;;;;;;16.73;7.68;;;;;;;;;;5012727;28;20039;-53
2021/12/21 02:50:11;;;;;;;13.93;7.45;;;;;;;;;;5016492;28;20037;-50
2021/12/21 02:52:37;;;;;;;16.90;8.30;;;;;;;;;;5012635;28;20032;-49
2021/12/21 02:55:06;;;;;;;17.23;7.85;;;;;;;;;;5016330;28;20385;-49
2021/12/21 02:57:32;;;;;;;14.85;8.05;;;;;;;;;;5011456;28;20118;-48
2021/12/21 03:00:01;;;;;;;21.55;7.10;;;;;;;;;;5016213;28;20477;-48
2021/12/21 03:02:27;;;;;;;16.30;8.95;;;;;;;;;;5016925;28;20153;-49
2021/12/21 03:04:53;;;;;;;23.40;9.77;;;;;;;;;;5012885;28;20562;-48
2021/12/21 03:10:10;;;;;;;23.77;9.68;;;;;;;;;;5011458;28;20496;-52
2021/12/21 03:15:25;;;;;;;18.60;9.52;;;;;;;;;;5009935;28;20403;-54
2021/12/21 03:17:51;;;;;;;20.60;9.45;;;;;;;;;;5012830;28;20512;-49
2021/12/21 03:20:18;;;;;;;20.50;10.45;;;;;;;;;;5015650;28;20034;-53
2021/12/21 03:22:44;;;;;;;22.17;10.30;;;;;;;;;;5017507;28;20061;-49
2021/12/21 03:25:10;;;;;;;21.92;9.98;;;;;;;;;;5013982;28;20125;-48
2021/12/21 03:27:36;;;;;;;21.92;10.18;;;;;;;;;;5016234;28;20065;-48
2021/12/21 03:30:03;;;;;;;22.92;10.60;;;;;;;;;;5021361;28;20117;-52
2021/12/21 03:32:28;;;;;;;20.63;10.90;;;;;;;;;;5015263;28;20504;-48
2021/12/21 03:34:54;;;;;;;22.35;10.82;;;;;;;;;;5016222;28;20060;-50
2021/12/21 03:37:19;;;;;;;22.95;10.52;;;;;;;;;;5022076;28;20029;-48
2021/12/21 03:39:45;;;;;;;24.08;10.80;;;;;;;;;;5015005;28;20528;-47
2021/12/21 03:42:14;;;;;;;20.20;10.70;;;;;;;;;;5017860;28;20053;-48
2021/12/21 03:44:40;;;;;;;24.42;11.13;;;;;;;;;;5012898;28;20404;-51
2021/12/21 03:47:09;;;;;;;20.48;10.25;;;;;;;;;;5018676;28;20048;-50
2021/12/21 03:52:19;;;;;;;20.50;10.30;;;;;;;;;;5012254;28;20044;-49
2021/12/21 03:54:50;;;;;;;18.73;10.55;;;;;;;;;;5008877;28;20034;-49
2021/12/21 03:57:16;;;;;;;24.33;11.00;;;;;;;;;;5011714;28;20049;-50
2021/12/21 03:59:43;;;;;;;24.38;11.40;;;;;;;;;;5012435;28;20033;-47
2021/12/21 04:02:11;;;;;;;16.58;10.18;;;;;;;;;;5011493;28;20478;-49
2021/12/21 04:04:37;;;;;;;21.20;11.18;;;;;;;;;;5014010;28;20686;-49
2021/12/21 04:07:03;;;;;;;24.35;11.60;;;;;;;;;;5014906;28;20041;-47
2021/12/21 04:09:28;;;;;;;19.88;10.40;;;;;;;;;;5009909;28;20022;-47
2021/12/21 04:11:54;;;;;;;19.98;11.13;;;;;;;;;;5013792;28;20030;-47
2021/12/21 04:14:20;;;;;;;23.00;11.27;;;;;;;;;;5016215;28;20030;-50
2021/12/21 04:16:46;;;;;;;19.10;10.32;;;;;;;;;;5017734;28;20060;-48
2021/12/21 04:19:13;;;;;;;22.33;10.73;;;;;;;;;;5013204;28;20074;-51
2021/12/21 04:21:39;;;;;;;22.65;11.25;;;;;;;;;;5012906;28;20025;-48
2021/12/21 04:24:05;;;;;;;22.25;11.02;;;;;;;;;;5021337;28;20029;-50
2021/12/21 04:26:31;;;;;;;19.65;10.88;;;;;;;;;;5015234;28;20523;-48
2021/12/21 04:28:56;;;;;;;19.27;9.75;;;;;;;;;;5011881;28;20515;-50
2021/12/21 04:31:22;;;;;;;19.85;10.20;;;;;;;;;;5014515;28;20068;-48
2021/12/21 04:33:47;;;;;;;19.33;11.02;;;;;;;;;;5016002;28;20485;-49
2021/12/21 04:36:13;;;;;;;18.90;10.27;;;;;;;;;;5016894;28;20040;-47
2021/12/21 04:38:43;;;;;;;20.55;9.77;;;;;;;;;;5015390;28;20386;-47
2021/12/21 04:41:26;;;;;;;20.52;10.02;;;;;;;;;;5016709;28;20026;-47
2021/12/21 04:43:52;;;;;;;;;;;;;;;;;;5014384;28;20049;-47
2021/12/21 04:46:17;;;;;;;20.75;9.75;;;;;;;;;;5012427;28;20014;-48
2021/12/21 04:48:43;;;;;;;20.33;10.73;;;;;;;;;;5019185;28;20495;-51
2021/12/21 04:51:09;;;;;;;22.17;9.98;;;;;;;;;;5019020;28;20052;-50
2021/12/21 04:53:34;;;;;;;21.42;11.00;;;;;;;;;;5010053;28;20441;-48
2021/12/21 04:56:02;;;;;;;22.48;11.23;;;;;;;;;;5018909;28;20133;-48
2021/12/21 04:58:28;;;;;;;18.85;10.57;;;;;;;;;;5009060;28;20563;-49
2021/12/21 05:00:54;;;;;;;26.08;11.38;;;;;;;;;;5018522;28;20200;-47
2021/12/21 05:03:19;;;;;;;23.33;11.30;;;;;;;;;;5013836;28;20034;-47
2021/12/21 05:05:45;;;;;;;23.80;11.15;;;;;;;;;;5014029;28;20069;-50
2021/12/21 05:08:18;;;;;;;24.00;11.02;;;;;;;;;;5018932;28;20034;-47
2021/12/21 05:10:48;;;;;;;23.48;11.43;;;;;;;;;;5012722;28;20559;-47
2021/12/21 05:13:18;;;;;;;22.45;10.93;;;;;;;;;;5010038;28;20038;-47
2021/12/21 05:15:44;;;;;;;21.77;11.38;;;;;;;;;;5013828;28;20037;-47
2021/12/21 05:18:10;;;;;;;22.17;10.88;;;;;;;;;;5014742;28;20567;-47
2021/12/21 05:20:37;;;;;;;22.40;11.40;;;;;;;;;;5012795;28;20112;-47
2021/12/21 05:23:02;;;;;;;20.40;11.02;;;;;;;;;;5017810;28;20540;-52
2021/12/21 05:25:28;;;;;;;20.75;10.63;;;;;;;;;;5012838;28;20040;-48
2021/12/21 05:27:54;;;;;;;20.13;9.98;;;;;;;;;;5017800;28;20453;-49
2021/12/21 05:30:22;;;;;;;19.63;10.32;;;;;;;;;;5010526;28;20383;-49
2021/12/21 05:32:49;;;;;;;16.92;9.50;;;;;;;;;;5012902;28;20029;-50
2021/12/21 05:35:15;;;;;;;20.85;11.45;;;;;;;;;;5016422;28;20033;-50
2021/12/21 05:37:41;;;;;;;19.50;9.90;;;;;;;;;;5015105;28;20061;-49
2021/12/21 05:40:18;;;;;;;24.55;10.45;;;;;;;;;;5014151;28;20153;-51
2021/12/21 05:42:48;;;;;;;21.83;10.18;;;;;;;;;;5016792;28;20079;-51
2021/12/21 05:45:17;;;;;;;21.15;11.13;;;;;;;;;;5013402;28;20025;-50
2021/12/21 05:47:44;;;;;;;20.92;10.70;;;;;;;;;;5012020;28;20363;-51
2021/12/21 05:50:16;;;;;;;20.85;11.15;;;;;;;;;;5015505;28;20033;-51
2021/12/21 05:52:41;;;;;;;19.15;11.40;;;;;;;;;;5016804;28;20037;-49
2021/12/21 05:55:08;;;;;;;25.88;11.93;;;;;;;;;;5018247;28;20079;-50
2021/12/21 05:57:34;;;;;;;22.35;10.73;;;;;;;;;;5015849;28;20505;-51
2021/12/21 05:59:59;;;;;;;18.77;10.35;;;;;;;;;;5018568;28;20025;-50
2021/12/21 06:02:25;;;;;;;22.90;11.02;;;;;;;;;;5014687;28;20835;-48
2021/12/21 06:04:50;;;;;;;20.42;10.00;;;;;;;;;;5016112;28;20157;-49
2021/12/21 06:07:16;;;;;;;17.92;10.65;;;;;;;;;;5015514;28;20040;-50
2021/12/21 06:09:44;;;;;;;19.50;10.25;;;;;;;;;;5013269;28;20033;-48
2021/12/21 06:12:18;;;;;;;28.70;10.80;;;;;;;;;;5015371;28;20106;-49
2021/12/21 06:25:39;;;;;;;22.48;10.30;;;;;;;;;;5014257;28;20068;-49
2021/12/21 06:28:08;;;;;;;22.35;10.35;;;;;;;;;;5015211;28;20072;-48
2021/12/21 06:30:35;;;;;;;23.27;10.93;;;;;;;;;;5015615;28;20041;-49
2021/12/21 06:33:01;;;;;;;18.67;9.75;;;;;;;;;;5014882;28;20037;-50
2021/12/21 06:35:27;;;;;;;20.00;10.50;;;;;;;;;;5013523;28;20516;-50
2021/12/21 06:37:53;;;;;;;21.02;9.98;;;;;;;;;;5015479;28;20060;-49
2021/12/21 06:40:19;;;;;;;20.52;9.55;;;;;;;;;;5009914;28;20038;-48
2021/12/21 06:42:49;;;;;;;18.95;10.20;;;;;;;;;;5011144;28;20060;-48
2021/12/21 06:45:27;;;;;;;20.40;11.00;;;;;;;;;;5010431;28;20136;-49
2021/12/21 06:53:21;;;;;;;15.75;9.23;;;;;;;;;;5012752;28;20087;-49
2021/12/21 06:55:47;;;;;;;19.55;10.95;;;;;;;;;;5014890;28;20037;-49
2021/12/21 06:58:12;;;;;;;23.73;11.68;;;;;;;;;;5015747;28;20539;-52
2021/12/21 07:00:38;;;;;;;22.17;11.88;;;;;;;;;;5012340;28;20045;-51
2021/12/21 07:03:04;;;;;;;20.40;11.50;;;;;;;;;;5018710;28;20083;-48
2021/12/21 07:05:30;;;;;;;24.33;12.32;;;;;;;;;;5010951;28;20054;-50
2021/12/21 07:07:56;;;;;;;26.98;12.45;;;;;;;;;;5014903;28;20037;-48
2021/12/21 07:10:26;;;;;;;20.50;11.15;;;;;;;;;;5011391;28;20032;-52
2021/12/21 07:20:27;;;;;;;19.58;10.85;;;;;;;;;;5014643;28;20025;-49
2021/12/21 07:22:53;;;;;;;21.30;10.82;;;;;;;;;;5012312;28;20080;-48
2021/12/21 07:25:19;;;;;;;20.95;11.52;;;;;;;;;;5013540;28;20100;-48
2021/12/21 07:27:44;;;;;;;20.30;11.40;;;;;;;;;;5011299;28;20543;-49
2021/12/21 07:30:10;;;;;;;22.30;11.65;;;;;;;;;;5010495;28;20112;-51
2021/12/21 07:32:36;;;;;;;23.55;12.02;;;;;;;;;;5014272;28;20443;-50
2021/12/21 07:35:03;;;;;;;26.67;12.52;;;;;;;;;;5017403;28;20497;-50
2021/12/21 07:37:29;;;;;;;28.23;13.15;;;;;;;;;;5018151;28;20033;-52
2021/12/21 07:39:54;;;;;;;21.20;11.25;;;;;;;;;;5018414;28;20030;-51
2021/12/21 07:42:21;;;;;;;24.17;12.60;;;;;;;;;;5017242;28;20528;-48
2021/12/21 07:44:47;;;;;;;20.90;11.43;;;;;;;;;;5023826;28;20025;-50
2021/12/21 07:47:13;;;;;;;24.98;12.02;;;;;;;;;;5018910;28;20037;-49
2021/12/21 07:49:39;;;;;;;21.00;12.35;;;;;;;;;;5013456;28;20027;-49
2021/12/21 07:52:07;;;;;;;19.17;11.02;;;;;;;;;;5019741;28;20408;-50
2021/12/21 07:54:33;;;;;;;19.10;11.65;;;;;;;;;;5014967;28;20669;-48
2021/12/21 07:56:59;;;;;;;22.25;11.88;;;;;;;;;;5013860;28;20218;-49
2021/12/21 07:59:25;;;;;;;25.35;12.63;;;;;;;;;;5016806;28;20119;-48
2021/12/21 08:01:51;;;;;;;20.33;12.13;;;;;;;;;;5009162;28;20752;-48
2021/12/21 08:04:17;;;;;;;22.13;13.05;;;;;;;;;;5015731;28;20054;-50
2021/12/21 08:06:45;;;;;;;25.17;13.40;;;;;;;;;;5010342;28;20034;-49
2021/12/21 08:09:11;;;;;;;24.48;12.82;;;;;;;;;;5015587;28;20037;-49
2021/12/21 08:14:04;;;;;;;27.75;12.82;;;;;;;;;;5011776;28;20322;-50
2021/12/21 08:16:30;;;;;;;23.90;13.77;;;;;;;;;;5017994;28;20084;-50
2021/12/21 08:18:55;;;;;;;23.75;13.68;;;;;;;;;;5013123;28;20042;-49
2021/12/21 08:21:23;;;;;;;29.58;12.63;;;;;;;;;;5008795;28;20044;-48
2021/12/21 08:23:48;;;;;;;25.55;13.18;;;;;;;;;;5013105;28;20124;-50
2021/12/21 08:26:14;;;;;;;23.95;13.88;;;;;;;;;;5013233;28;20167;-54
2021/12/21 08:28:40;;;;;;;24.38;13.15;;;;;;;;;;5019617;28;20033;-50
2021/12/21 08:31:10;;;;;;;22.88;13.68;;;;;;;;;;5008267;28;20042;-53
2021/12/21 08:33:36;;;;;;;24.80;13.30;;;;;;;;;;5013831;28;20500;-50
2021/12/21 08:36:03;;;;;;;24.38;13.00;;;;;;;;;;5015457;28;20144;-49
2021/12/21 08:38:31;;;;;;;21.42;12.80;;;;;;;;;;5018691;28;20104;-48
2021/12/21 08:40:58;;;;;;;21.08;13.07;;;;;;;;;;5014120;28;20045;-48
2021/12/21 08:43:25;;;;;;;24.90;14.20;;;;;;;;;;5020294;28;20025;-51
2021/12/21 08:45:52;;;;;;;27.17;13.00;;;;;;;;;;5018587;28;20080;-49
2021/12/21 08:48:19;;;;;;;25.75;13.13;;;;;;;;;;5017589;28;20116;-49
2021/12/21 08:50:47;;;;;;;24.70;13.68;;;;;;;;;;5019828;28;20045;-50
2021/12/21 08:53:14;;;;;;;34.75;14.10;;;;;;;;;;5020974;28;20112;-52
2021/12/21 08:55:41;;;;;;;23.17;13.60;;;;;;;;;;5018398;28;20022;-48
2021/12/21 08:58:07;;;;;;;28.98;13.15;;;;;;;;;;5015411;28;20029;-49
2021/12/21 09:00:32;;;;;;;27.77;11.73;;;;;;;;;;5017433;28;20063;-49
2021/12/21 09:02:58;;;;;;;26.95;10.45;;;;;;;;;;5016853;28;20117;-49
2021/12/21 09:05:27;;;;;;;23.55;11.75;;;;;;;;;;5014535;28;20199;-49
2021/12/21 09:07:54;;;;;;;22.13;10.00;;;;;;;;;;5015932;28;20042;-50
2021/12/21 09:10:21;;;;;;;21.63;10.23;;;;;;;;;;5013590;28;20077;-49
2021/12/21 09:12:47;;;;;;;21.85;10.35;;;;;;;;;;5018652;28;20056;-54
2021/12/21 09:15:13;;;;;;;30.52;8.15;;;;;;;;;;5020468;28;20021;-49
2021/12/21 09:17:41;;;;;;;26.15;8.35;;;;;;;;;;5014976;28;20045;-51
2021/12/21 09:20:09;;;;;;;21.50;8.27;;;;;;;;;;5014160;28;20047;-49
2021/12/21 09:22:35;;;;;;;29.23;8.57;;;;;;;;;;5014246;28;20388;-49
2021/12/21 09:25:00;;;;;;;31.75;8.80;;;;;;;;;;5015002;28;20096;-52
2021/12/21 09:27:27;;;;;;;22.95;7.63;;;;;;;;;;5012452;28;20539;-51
2021/12/21 09:29:55;;;;;;;31.08;8.60;;;;;;;;;;5013778;28;20037;-51
2021/12/21 09:32:21;;;;;;;27.50;8.45;;;;;;;;;;5013252;28;20029;-48
2021/12/21 09:34:47;;;;;;;31.50;6.93;;;;;;;;;;5012363;28;20076;-53
2021/12/21 09:37:19;;;;;;;31.88;6.07;;;;;;;;;;5012489;28;20032;-49
2021/12/21 09:39:48;;;;;;;30.02;5.95;;;;;;;;;;5009272;28;20145;-53
2021/12/21 09:42:17;;;;;;;27.88;7.03;;;;;;;;;;5013720;28;20100;-56
2021/12/21 09:44:43;;;;;;;34.03;6.47;;;;;;;;;;5013357;28;20033;-51
2021/12/21 09:47:10;;;;;;;30.73;7.95;;;;;;;;;;5012330;28;20505;-53
2021/12/21 09:49:37;;;;;;;29.05;6.53;;;;;;;;;;5015587;28;20033;-55
2021/12/21 09:52:05;;;;;;;32.58;7.57;;;;;;;;;;5011144;28;20048;-54
2021/12/21 09:54:33;;;;;;;32.30;6.32;;;;;;;;;;5016111;28;20029;-51
2021/12/21 09:56:59;;;;;;;31.45;6.10;;;;;;;;;;5011628;28;20057;-53
2021/12/21 09:59:25;;;;;;;25.48;6.18;;;;;;;;;;5008358;28;20025;-55
2021/12/21 10:01:51;;;;;;;26.08;6.25;;;;;;;;;;5010872;28;20690;-55
2021/12/21 10:04:17;;;;;;;42.70;6.18;;;;;;;;;;5012839;28;20111;-56
2021/12/21 10:06:49;;;;;;;22.90;5.88;;;;;;;;;;5011265;28;20080;-57
2021/12/21 10:09:16;;;;;;;23.10;5.97;;;;;;;;;;5017786;28;20557;-56
2021/12/21 10:11:43;;;;;;;29.45;5.45;;;;;;;;;;5014738;28;20511;-55
2021/12/21 10:14:10;;;;;;;24.23;5.20;;;;;;;;;;5013533;28;20061;-54
2021/12/21 10:16:35;;;;;;;24.08;5.38;;;;;;;;;;5009816;28;20191;-56
2021/12/21 10:19:01;;;;;;;20.55;6.45;;;;;;;;;;5010746;28;20125;-55
2021/12/21 10:21:26;;;;;;;31.70;6.60;;;;;;;;;;5013655;28;20053;-55
2021/12/21 10:23:54;;;;;;;37.78;6.65;;;;;;;;;;5013110;28;20025;-56
2021/12/21 10:26:25;;;;;;;28.48;5.57;;;;;;;;;;5013982;28;20030;-54
2021/12/21 10:29:02;;;;;;;22.23;6.32;;;;;;;;;;5016739;28;20108;-55
2021/12/21 10:31:32;;;;;;;30.85;6.53;;;;;;;;;;5017889;28;20511;-55
2021/12/21 10:34:01;;;;;;;31.00;6.30;;;;;;;;;;5011801;28;20072;-54
2021/12/21 10:36:29;;;;;;;20.13;5.40;;;;;;;;;;5010296;28;20052;-53
2021/12/21 10:38:57;;;;;;;21.70;6.15;;;;;;;;;;5010021;28;20033;-54
2021/12/21 10:41:41;;;;;;;18.48;5.75;;;;;;;;;;5008184;28;20397;-54
2021/12/21 10:44:09;;;;;;;28.48;5.78;;;;;;;;;;5012284;28;20037;-56
2021/12/21 10:46:37;;;;;;;22.50;5.72;;;;;;;;;;5009461;28;20029;-54
2021/12/21 10:49:21;;;;;;;25.20;7.00;;;;;;;;;;5012190;28;20033;-55
2021/12/21 10:52:14;;;;;;;29.83;7.28;;;;;;;;;;5017989;28;20025;-51
2021/12/21 10:54:43;;;;;;;35.35;6.57;;;;;;;;;;5014379;28;20046;-54
2021/12/21 10:57:15;;;;;;;25.77;6.25;;;;;;;;;;5012761;28;20029;-53
2021/12/21 10:59:45;;;;;;;31.20;6.38;;;;;;;;;;5014202;28;20030;-55
2021/12/21 11:02:21;;;;;;;35.53;5.78;;;;;;;;;;5016601;28;20515;-54
2021/12/21 11:04:51;;;;;;;20.88;5.32;;;;;;;;;;5009428;28;20054;-52
2021/12/21 11:07:30;;;;;;;21.70;5.93;;;;;;;;;;5015229;28;20112;-53
2021/12/21 11:10:09;;;;;;;31.23;6.35;;;;;;;;;;5015259;28;20037;-56
2021/12/21 11:12:46;;;;;;;26.80;6.93;;;;;;;;;;5016325;28;20512;-54
2021/12/21 11:15:14;;;;;;;23.45;6.80;;;;;;;;;;5017179;28;20082;-54
2021/12/21 11:17:40;;;;;;;23.95;6.03;;;;;;;;;;5016651;28;20570;-54
2021/12/21 11:20:08;;;;;;;21.45;6.18;;;;;;;;;;5012642;28;20134;-56
2021/12/21 11:22:37;;;;;;;25.95;6.32;;;;;;;;;;5016831;28;20529;-55
2021/12/21 11:25:04;;;;;;;20.73;6.15;;;;;;;;;;5017042;28;20040;-54
2021/12/21 11:27:33;;;;;;;37.22;7.68;;;;;;;;;;5015158;28;20112;-55
2021/12/21 11:30:02;;;;;;;27.52;7.00;;;;;;;;;;5015743;28;20159;-55
2021/12/21 11:32:31;;;;;;;38.20;6.82;;;;;;;;;;5015232;28;20557;-53
2021/12/21 11:37:43;;;;;;;23.42;8.18;;;;;;;;;;5012791;28;20481;-54
2021/12/21 11:40:13;;;;;;;32.05;8.50;;;;;;;;;;5018136;28;20056;-54
2021/12/21 11:43:17;;;;;;;28.40;7.10;;;;;;;;;;5013796;28;20028;-55
2021/12/21 11:45:47;;;;;;;25.17;7.68;;;;;;;;;;5016851;28;20400;-53
2021/12/21 11:48:19;;;;;;;26.38;7.35;;;;;;;;;;5016939;28;20034;-54
2021/12/21 11:50:47;;;;;;;28.15;7.72;;;;;;;;;;5017392;28;20400;-55
2021/12/21 11:53:17;;;;;;;26.10;7.63;;;;;;;;;;5016848;28;20033;-55
2021/12/21 11:55:45;;;;;;;38.05;9.32;;;;;;;;;;5023639;28;20036;-56
2021/12/21 11:58:32;;;;;;;33.03;8.95;;;;;;;;;;5013446;28;20044;-56
2021/12/21 12:01:23;;;;;;;40.63;8.48;;;;;;;;;;5014155;28;20030;-54
2021/12/21 12:04:03;;;;;;;18.90;7.88;;;;;;;;;;5022172;28;20029;-54
2021/12/21 12:06:49;;;;;;;28.67;8.35;;;;;;;;;;5020542;28;20050;-55
2021/12/21 12:09:33;;;;;;;33.30;8.02;;;;;;;;;;5016539;28;20034;-55
2021/12/21 12:12:10;;;;;;;34.05;8.18;;;;;;;;;;5017889;28;20435;-53
2021/12/21 12:14:37;;;;;;;31.27;9.27;;;;;;;;;;5013813;28;20506;-56
2021/12/21 12:17:12;;;;;;;31.92;9.60;;;;;;;;;;5018027;28;20511;-55
2021/12/21 12:19:38;;;;;;;43.65;8.30;;;;;;;;;;5022557;28;20332;-53
2021/12/21 12:22:12;;;;;;;31.75;8.95;;;;;;;;;;5013702;28;20029;-55
2021/12/21 12:24:44;;;;;;;30.48;9.00;;;;;;;;;;5013240;28;20029;-55
2021/12/21 12:27:16;;;;;;;47.83;9.93;;;;;;;;;;5021570;28;20029;-55
2021/12/21 12:29:53;;;;;;;28.02;9.52;;;;;;;;;;5017819;28;20040;-54
2021/12/21 12:32:41;;;;;;;32.38;9.27;;;;;;;;;;5014718;28;20036;-52
2021/12/21 12:35:28;;;;;;;39.03;11.05;;;;;;;;;;5008092;28;20851;-55
2021/12/21 12:37:55;;;;;;;32.67;8.60;;;;;;;;;;5011684;28;20400;-56
2021/12/21 12:40:26;;;;;;;47.30;9.77;;;;;;;;;;5017888;28;20033;-56
2021/12/21 12:42:59;;;;;;;36.47;9.93;;;;;;;;;;5017599;28;20037;-55
2021/12/21 12:45:33;;;;;;;35.60;9.13;;;;;;;;;;5015932;28;20109;-56
2021/12/21 12:47:59;;;;;;;37.55;9.90;;;;;;;;;;5015960;28;20476;-56
2021/12/21 12:50:28;;;;;;;36.67;10.32;;;;;;;;;;5007755;28;20069;-56
2021/12/21 12:53:00;;;;;;;34.83;10.85;;;;;;;;;;5015396;28;20042;-55
2021/12/21 12:55:36;;;;;;;;;;;;;;;;;;5012139;28;20206;-56
2021/12/21 12:58:11;;;;;;;31.77;10.68;;;;;;;;;;5014536;28;19924;-56
2021/12/21 13:00:41;;;;;;;35.30;10.25;;;;;;;;;;5019067;28;20024;-55
2021/12/21 13:03:08;;;;;;;34.67;9.98;;;;;;;;;;5013720;28;20573;-56
2021/12/21 13:05:41;;;;;;;43.50;9.82;;;;;;;;;;5014530;28;20061;-55
2021/12/21 13:08:14;;;;;;;36.13;9.00;;;;;;;;;;5011853;28;20056;-55
2021/12/21 13:10:42;;;;;;;33.70;9.88;;;;;;;;;;5012370;28;20358;-53
2021/12/21 13:13:07;;;;;;;42.35;9.50;;;;;;;;;;5017058;28;20030;-55
2021/12/21 13:15:39;;;;;;;30.33;9.27;;;;;;;;;;5013757;28;20382;-52
2021/12/21 13:18:06;;;;;;;41.03;9.97;;;;;;;;;;5012616;28;20025;-55
2021/12/21 13:20:37;;;;;;;35.72;9.75;;;;;;;;;;5016841;28;20291;-52
2021/12/21 13:23:09;;;;;;;30.55;7.78;;;;;;;;;;5013869;28;20021;-54
2021/12/21 13:25:35;;;;;;;26.05;8.63;;;;;;;;;;5020644;28;20557;-55
2021/12/21 13:28:12;;;;;;;35.08;9.88;;;;;;;;;;5017522;28;20071;-55
2021/12/21 13:30:47;;;;;;;32.40;9.18;;;;;;;;;;5017222;28;20051;-55
2021/12/21 13:33:21;;;;;;;43.58;8.75;;;;;;;;;;5014484;28;20029;-54
2021/12/21 13:35:47;;;;;;;42.35;9.70;;;;;;;;;;5022760;28;20025;-55
2021/12/21 13:38:15;;;;;;;34.67;9.30;;;;;;;;;;5012415;28;20055;-54
2021/12/21 13:40:40;;;;;;;30.27;8.60;;;;;;;;;;5013206;28;20049;-54
2021/12/21 13:43:13;;;;;;;37.53;9.55;;;;;;;;;;5012541;28;20069;-55
2021/12/21 13:45:41;;;;;;;40.17;9.38;;;;;;;;;;5016921;28;20116;-54
2021/12/21 13:48:15;;;;;;;37.22;10.40;;;;;;;;;;5012566;28;20272;-55
2021/12/21 13:50:41;;;;;;;46.50;10.68;;;;;;;;;;5016198;28;20041;-55
2021/12/21 13:53:07;;;;;;;36.60;9.18;;;;;;;;;;5012143;28;20033;-55
2021/12/21 13:55:38;;;;;;;33.22;9.73;;;;;;;;;;5020909;28;20029;-54
2021/12/21 13:58:07;;;;;;;31.88;9.85;;;;;;;;;;5009974;28;20033;-56
2021/12/21 14:00:45;;;;;;;28.88;9.60;;;;;;;;;;5015392;28;20039;-54
2021/12/21 14:05:48;;;;;;;34.97;9.40;;;;;;;;;;5010753;28;20057;-55
2021/12/21 14:08:18;;;;;;;50.50;9.40;;;;;;;;;;5019309;28;20474;-55
2021/12/21 14:10:52;;;;;;;40.20;8.90;;;;;;;;;;5013323;28;20034;-55
2021/12/21 14:13:28;;;;;;;34.25;8.95;;;;;;;;;;5015261;28;20057;-55
2021/12/21 14:15:54;;;;;;;33.67;8.75;;;;;;;;;;5009091;28;20025;-54
2021/12/21 14:18:21;;;;;;;30.30;9.45;;;;;;;;;;5007702;28;20021;-55
2021/12/21 14:20:59;;;;;;;46.42;9.75;;;;;;;;;;5009536;28;20441;-56
2021/12/21 14:23:27;;;;;;;50.38;9.73;;;;;;;;;;5013688;28;20075;-56
2021/12/21 14:26:09;;;;;;;32.70;9.35;;;;;;;;;;5015660;28;20033;-54
2021/12/21 14:28:56;;;;;;;35.10;10.43;;;;;;;;;;5015358;28;20029;-55
2021/12/21 14:31:38;;;;;;;58.42;11.00;;;;;;;;;;5011610;28;20038;-53
2021/12/21 14:34:04;;;;;;;37.60;10.40;;;;;;;;;;5014294;28;20081;-54
2021/12/21 14:36:34;;;;;;;30.90;9.90;;;;;;;;;;5014829;28;20625;-56
2021/12/21 14:39:03;;;;;;;48.90;10.02;;;;;;;;;;5011458;28;20109;-56
2021/12/21 14:41:31;;;;;;;35.45;10.38;;;;;;;;;;5011074;28;20053;-55
2021/12/21 14:44:06;;;;;;;42.35;10.60;;;;;;;;;;5011287;28;20239;-55
2021/12/21 14:46:34;;;;;;;45.15;11.02;;;;;;;;;;5017153;28;20031;-54
2021/12/21 14:49:06;;;;;;;39.85;9.52;;;;;;;;;;5016523;28;20052;-55
2021/12/21 14:51:52;;;;;;;44.53;10.27;;;;;;;;;;5015274;28;20104;-56
2021/12/21 14:54:27;;;;;;;42.17;11.95;;;;;;;;;;5009448;28;20530;-54
2021/12/21 14:57:06;;;;;;;41.85;12.35;;;;;;;;;;5011206;28;20034;-54
2021/12/21 14:59:37;;;;;;;48.90;12.10;;;;;;;;;;5014186;28;20062;-54
2021/12/21 15:02:24;;;;;;;52.05;13.45;;;;;;;;;;5011027;28;20025;-55
2021/12/21 15:04:56;;;;;;;45.15;12.82;;;;;;;;;;5015481;28;20515;-56
2021/12/21 15:07:22;;;;;;;33.20;13.27;;;;;;;;;;5016355;28;20030;-56
2021/12/21 15:09:50;;;;;;;39.72;13.32;;;;;;;;;;5013050;28;20034;-55
2021/12/21 15:12:17;;;;;;;37.28;12.80;;;;;;;;;;5011096;28;20068;-54
2021/12/21 15:14:42;;;;;;;51.95;13.90;;;;;;;;;;5014285;28;20563;-54
2021/12/21 15:17:08;;;;;;;40.83;12.90;;;;;;;;;;5014790;28;20168;-56
2021/12/21 15:19:33;;;;;;;43.55;12.95;;;;;;;;;;5014599;28;20113;-53
2021/12/21 15:21:59;;;;;;;33.53;11.43;;;;;;;;;;5018248;28;20116;-56
2021/12/21 15:24:25;;;;;;;36.85;12.20;;;;;;;;;;5013203;28;20026;-56
2021/12/21 15:26:50;;;;;;;58.53;14.80;;;;;;;;;;5011774;28;20396;-51
2021/12/21 15:29:16;;;;;;;36.95;11.57;;;;;;;;;;5012563;28;20192;-55
2021/12/21 15:31:42;;;;;;;37.88;11.55;;;;;;;;;;5013041;28;20059;-54
2021/12/21 15:34:08;;;;;;;40.45;12.38;;;;;;;;;;5020576;28;20492;-54
2021/12/21 15:36:34;;;;;;;51.03;12.15;;;;;;;;;;5015549;28;20032;-54
2021/12/21 15:39:00;;;;;;;39.90;12.32;;;;;;;;;;5013101;28;20085;-56
2021/12/21 15:41:26;;;;;;;42.33;12.02;;;;;;;;;;5015450;28;20030;-55
2021/12/21 15:43:52;;;;;;;34.45;11.43;;;;;;;;;;5018186;28;20248;-55
2021/12/21 15:46:20;;;;;;;48.65;12.25;;;;;;;;;;5017795;28;20502;-56
2021/12/21 15:48:46;;;;;;;42.20;12.48;;;;;;;;;;5019410;28;20496;-55
2021/12/21 15:51:13;;;;;;;49.28;12.77;;;;;;;;;;5021829;28;20037;-54
2021/12/21 15:53:41;;;;;;;49.10;13.65;;;;;;;;;;5020613;28;20525;-55